sensor_id;sensor_type;location;lat;lon;timestamp;temperature;humidity
4354;DHT22;11018;51.258;6.806;2022-09-09T00:04:41;16.50;99.90
4354;DHT22;11018;51.258;6.806;2022-09-09T00:12:54;16.40;99.90
4354;DHT22;11018;51.258;6.806;2022-09-09T00:15:33;16.30;99.90
4354;DHT22;11018;51.258;6.806;2022-09-09T00:18:15;16.20;99.90
4354;DHT22;11018;51.258;6.806;2022-09-09T00:20:49;16.20;99.90
4354;DHT22;11018;51.258;6.806;2022-09-09T00:28:23;16.00;99.90
4354;DHT22;11018;51.258;6.806;2022-09-09T00:30:50;16.10;99.90
4354;DHT22;11018;51.258;6.806;2022-09-09T00:33:19;16.00;99.90
4354;DHT22;11018;51.258;6.806;2022-09-09T00:35:51;15.90;99.90
4354;DHT22;11018;51.258;6.806;2022-09-09T00:38:24;15.80;99.90
4354;DHT22;11018;51.258;6.806;2022-09-09T00:51:43;15.90;99.90
4354;DHT22;11018;51.258;6.806;2022-09-09T00:57:34;16.00;99.90
4354;DHT22;11018;51.258;6.806;2022-09-09T01:00:24;16.10;99.90
4354;DHT22;11018;51.258;6.806;2022-09-09T01:03:10;16.10;99.90
4354;DHT22;11018;51.258;6.806;2022-09-09T01:14:17;16.20;99.90
4354;DHT22;11018;51.258;6.806;2022-09-09T01:16:45;16.00;99.90
4354;DHT22;11018;51.258;6.806;2022-09-09T01:19:24;15.90;99.90
4354;DHT22;11018;51.258;6.806;2022-09-09T01:22:11;15.90;99.90
4354;DHT22;11018;51.258;6.806;2022-09-09T01:27:36;15.70;99.90
4354;DHT22;11018;51.258;6.806;2022-09-09T01:30:09;15.70;99.90
4354;DHT22;11018;51.258;6.806;2022-09-09T01:32:42;15.60;99.90
4354;DHT22;11018;51.258;6.806;2022-09-09T01:35:14;15.50;99.90
4354;DHT22;11018;51.258;6.806;2022-09-09T01:37:40;15.50;99.90
4354;DHT22;11018;51.258;6.806;2022-09-09T01:40:07;15.50;99.90
4354;DHT22;11018;51.258;6.806;2022-09-09T01:42:32;15.50;99.90
4354;DHT22;11018;51.258;6.806;2022-09-09T01:44:58;15.50;99.90
4354;DHT22;11018;51.258;6.806;2022-09-09T01:47:24;15.60;99.90
4354;DHT22;11018;51.258;6.806;2022-09-09T01:49:50;15.70;99.90
4354;DHT22;11018;51.258;6.806;2022-09-09T01:52:15;15.70;99.90
4354;DHT22;11018;51.258;6.806;2022-09-09T01:54:41;15.60;99.90
4354;DHT22;11018;51.258;6.806;2022-09-09T02:00:03;15.70;99.90
4354;DHT22;11018;51.258;6.806;2022-09-09T02:02:38;15.80;99.90
4354;DHT22;11018;51.258;6.806;2022-09-09T02:07:49;16.00;99.90
4354;DHT22;11018;51.258;6.806;2022-09-09T02:10:26;16.10;99.90
4354;DHT22;11018;51.258;6.806;2022-09-09T02:13:03;16.10;99.90
4354;DHT22;11018;51.258;6.806;2022-09-09T02:15:40;16.20;99.90
4354;DHT22;11018;51.258;6.806;2022-09-09T02:18:09;16.30;99.90
4354;DHT22;11018;51.258;6.806;2022-09-09T02:20:38;16.30;99.90
4354;DHT22;11018;51.258;6.806;2022-09-09T02:23:05;16.40;99.90
4354;DHT22;11018;51.258;6.806;2022-09-09T02:25:33;16.50;99.90
4354;DHT22;11018;51.258;6.806;2022-09-09T02:28:02;16.50;99.90
4354;DHT22;11018;51.258;6.806;2022-09-09T02:30:29;16.50;99.90
4354;DHT22;11018;51.258;6.806;2022-09-09T02:32:58;16.70;99.90
4354;DHT22;11018;51.258;6.806;2022-09-09T02:35:25;16.60;99.90
4354;DHT22;11018;51.258;6.806;2022-09-09T02:37:54;16.70;99.90
4354;DHT22;11018;51.258;6.806;2022-09-09T02:40:21;16.70;99.90
4354;DHT22;11018;51.258;6.806;2022-09-09T02:42:48;16.80;99.90
4354;DHT22;11018;51.258;6.806;2022-09-09T02:45:18;16.80;99.90
4354;DHT22;11018;51.258;6.806;2022-09-09T02:47:51;16.70;99.90
4354;DHT22;11018;51.258;6.806;2022-09-09T02:50:37;16.80;99.90
4354;DHT22;11018;51.258;6.806;2022-09-09T02:53:17;16.80;99.90
4354;DHT22;11018;51.258;6.806;2022-09-09T02:58:13;16.80;97.70
4354;DHT22;11018;51.258;6.806;2022-09-09T03:00:44;16.80;95.40
4354;DHT22;11018;51.258;6.806;2022-09-09T03:03:10;16.90;93.20
4354;DHT22;11018;51.258;6.806;2022-09-09T03:05:36;17.00;88.90
4354;DHT22;11018;51.258;6.806;2022-09-09T03:08:03;17.10;87.70
4354;DHT22;11018;51.258;6.806;2022-09-09T03:10:28;17.10;87.00
4354;DHT22;11018;51.258;6.806;2022-09-09T03:12:54;17.00;87.40
4354;DHT22;11018;51.258;6.806;2022-09-09T03:15:20;17.10;86.00
4354;DHT22;11018;51.258;6.806;2022-09-09T03:17:46;17.00;85.00
4354;DHT22;11018;51.258;6.806;2022-09-09T03:20:12;17.00;83.30
4354;DHT22;11018;51.258;6.806;2022-09-09T03:22:38;17.00;84.80
4354;DHT22;11018;51.258;6.806;2022-09-09T03:25:04;17.00;84.30
4354;DHT22;11018;51.258;6.806;2022-09-09T03:27:29;17.00;83.80
4354;DHT22;11018;51.258;6.806;2022-09-09T03:29:55;17.00;84.80
4354;DHT22;11018;51.258;6.806;2022-09-09T03:32:21;17.00;84.50
4354;DHT22;11018;51.258;6.806;2022-09-09T03:34:48;17.00;83.40
4354;DHT22;11018;51.258;6.806;2022-09-09T03:37:16;17.00;84.00
4354;DHT22;11018;51.258;6.806;2022-09-09T03:39:43;17.00;82.90
4354;DHT22;11018;51.258;6.806;2022-09-09T03:42:08;17.00;82.70
4354;DHT22;11018;51.258;6.806;2022-09-09T03:44:34;17.00;82.80
4354;DHT22;11018;51.258;6.806;2022-09-09T03:46:59;17.00;83.00
4354;DHT22;11018;51.258;6.806;2022-09-09T03:49:26;17.00;83.60
4354;DHT22;11018;51.258;6.806;2022-09-09T03:51:54;17.00;83.60
4354;DHT22;11018;51.258;6.806;2022-09-09T03:54:20;16.90;83.30
4354;DHT22;11018;51.258;6.806;2022-09-09T03:56:45;16.80;84.90
4354;DHT22;11018;51.258;6.806;2022-09-09T03:59:11;16.70;86.40
4354;DHT22;11018;51.258;6.806;2022-09-09T04:01:36;16.80;85.10
4354;DHT22;11018;51.258;6.806;2022-09-09T04:04:02;16.80;85.50
4354;DHT22;11018;51.258;6.806;2022-09-09T04:06:28;16.70;86.80
4354;DHT22;11018;51.258;6.806;2022-09-09T04:08:54;16.50;89.20
4354;DHT22;11018;51.258;6.806;2022-09-09T04:11:20;16.50;89.60
4354;DHT22;11018;51.258;6.806;2022-09-09T04:13:46;16.50;89.80
4354;DHT22;11018;51.258;6.806;2022-09-09T04:16:12;16.50;90.20
4354;DHT22;11018;51.258;6.806;2022-09-09T04:18:41;16.60;89.50
4354;DHT22;11018;51.258;6.806;2022-09-09T04:21:08;16.50;89.20
4354;DHT22;11018;51.258;6.806;2022-09-09T04:23:35;16.60;89.50
4354;DHT22;11018;51.258;6.806;2022-09-09T04:26:02;16.60;88.90
4354;DHT22;11018;51.258;6.806;2022-09-09T04:28:29;16.60;88.20
4354;DHT22;11018;51.258;6.806;2022-09-09T04:30:56;16.70;86.60
4354;DHT22;11018;51.258;6.806;2022-09-09T04:33:24;16.70;87.40
4354;DHT22;11018;51.258;6.806;2022-09-09T04:35:52;16.80;86.40
4354;DHT22;11018;51.258;6.806;2022-09-09T04:38:19;16.90;87.30
4354;DHT22;11018;51.258;6.806;2022-09-09T04:40:48;16.90;84.70
4354;DHT22;11018;51.258;6.806;2022-09-09T04:43:15;17.00;83.80
4354;DHT22;11018;51.258;6.806;2022-09-09T04:45:41;17.00;84.50
4354;DHT22;11018;51.258;6.806;2022-09-09T04:48:07;17.00;84.00
4354;DHT22;11018;51.258;6.806;2022-09-09T04:50:33;17.10;83.80
4354;DHT22;11018;51.258;6.806;2022-09-09T04:53:03;17.00;84.70
4354;DHT22;11018;51.258;6.806;2022-09-09T04:55:30;17.10;83.50
4354;DHT22;11018;51.258;6.806;2022-09-09T04:57:55;17.20;82.70
4354;DHT22;11018;51.258;6.806;2022-09-09T05:00:23;17.20;83.70
4354;DHT22;11018;51.258;6.806;2022-09-09T05:02:48;17.20;82.30
4354;DHT22;11018;51.258;6.806;2022-09-09T05:05:14;17.20;83.20
4354;DHT22;11018;51.258;6.806;2022-09-09T05:07:40;17.20;82.60
4354;DHT22;11018;51.258;6.806;2022-09-09T05:10:07;17.30;82.80
4354;DHT22;11018;51.258;6.806;2022-09-09T05:12:33;17.30;82.50
4354;DHT22;11018;51.258;6.806;2022-09-09T05:14:58;17.30;80.60
4354;DHT22;11018;51.258;6.806;2022-09-09T05:17:24;17.20;82.00
4354;DHT22;11018;51.258;6.806;2022-09-09T05:19:49;17.30;81.20
4354;DHT22;11018;51.258;6.806;2022-09-09T05:22:19;17.30;81.90
4354;DHT22;11018;51.258;6.806;2022-09-09T05:24:45;17.40;79.00
4354;DHT22;11018;51.258;6.806;2022-09-09T05:27:11;17.50;79.80
4354;DHT22;11018;51.258;6.806;2022-09-09T05:29:37;17.50;80.10
4354;DHT22;11018;51.258;6.806;2022-09-09T05:32:04;17.60;80.30
4354;DHT22;11018;51.258;6.806;2022-09-09T05:34:29;17.60;77.90
4354;DHT22;11018;51.258;6.806;2022-09-09T05:36:55;17.70;77.40
4354;DHT22;11018;51.258;6.806;2022-09-09T05:39:20;17.70;75.90
4354;DHT22;11018;51.258;6.806;2022-09-09T05:41:46;17.80;74.40
4354;DHT22;11018;51.258;6.806;2022-09-09T05:44:12;17.80;74.60
4354;DHT22;11018;51.258;6.806;2022-09-09T05:46:37;17.90;74.40
4354;DHT22;11018;51.258;6.806;2022-09-09T05:49:03;18.00;70.70
4354;DHT22;11018;51.258;6.806;2022-09-09T05:51:30;18.20;70.90
4354;DHT22;11018;51.258;6.806;2022-09-09T05:53:56;18.30;68.70
4354;DHT22;11018;51.258;6.806;2022-09-09T05:56:27;18.30;68.90
4354;DHT22;11018;51.258;6.806;2022-09-09T05:58:54;18.40;65.90
4354;DHT22;11018;51.258;6.806;2022-09-09T06:01:31;18.40;67.00
4354;DHT22;11018;51.258;6.806;2022-09-09T06:03:57;18.40;65.50
4354;DHT22;11018;51.258;6.806;2022-09-09T06:06:26;18.40;66.30
4354;DHT22;11018;51.258;6.806;2022-09-09T06:08:53;18.40;64.80
4354;DHT22;11018;51.258;6.806;2022-09-09T06:11:20;18.40;64.70
4354;DHT22;11018;51.258;6.806;2022-09-09T06:13:47;18.50;64.80
4354;DHT22;11018;51.258;6.806;2022-09-09T06:16:16;18.50;62.90
4354;DHT22;11018;51.258;6.806;2022-09-09T06:18:42;18.60;62.80
4354;DHT22;11018;51.258;6.806;2022-09-09T06:21:13;18.60;63.40
4354;DHT22;11018;51.258;6.806;2022-09-09T06:23:40;18.70;62.40
4354;DHT22;11018;51.258;6.806;2022-09-09T06:26:19;18.80;60.60
4354;DHT22;11018;51.258;6.806;2022-09-09T06:28:47;18.90;60.50
4354;DHT22;11018;51.258;6.806;2022-09-09T06:31:14;19.10;57.20
4354;DHT22;11018;51.258;6.806;2022-09-09T06:33:42;19.10;56.90
4354;DHT22;11018;51.258;6.806;2022-09-09T06:36:14;19.20;54.80
4354;DHT22;11018;51.258;6.806;2022-09-09T06:38:40;19.20;54.60
4354;DHT22;11018;51.258;6.806;2022-09-09T06:41:08;19.10;54.60
4354;DHT22;11018;51.258;6.806;2022-09-09T06:43:34;19.10;53.40
4354;DHT22;11018;51.258;6.806;2022-09-09T06:46:06;19.00;54.50
4354;DHT22;11018;51.258;6.806;2022-09-09T06:48:33;18.90;55.90
4354;DHT22;11018;51.258;6.806;2022-09-09T06:51:05;19.00;54.10
4354;DHT22;11018;51.258;6.806;2022-09-09T06:53:33;19.00;55.00
4354;DHT22;11018;51.258;6.806;2022-09-09T06:56:18;18.90;55.10
4354;DHT22;11018;51.258;6.806;2022-09-09T06:58:44;18.90;55.80
4354;DHT22;11018;51.258;6.806;2022-09-09T07:01:13;18.90;53.10
4354;DHT22;11018;51.258;6.806;2022-09-09T07:03:39;19.00;52.00
4354;DHT22;11018;51.258;6.806;2022-09-09T07:06:06;19.00;50.70
4354;DHT22;11018;51.258;6.806;2022-09-09T07:08:33;19.00;49.80
4354;DHT22;11018;51.258;6.806;2022-09-09T07:11:06;19.10;49.40
4354;DHT22;11018;51.258;6.806;2022-09-09T07:13:31;19.30;48.30
4354;DHT22;11018;51.258;6.806;2022-09-09T07:16:09;19.50;47.50
4354;DHT22;11018;51.258;6.806;2022-09-09T07:18:35;19.60;45.60
4354;DHT22;11018;51.258;6.806;2022-09-09T07:21:02;19.80;44.60
4354;DHT22;11018;51.258;6.806;2022-09-09T07:23:28;19.70;42.10
4354;DHT22;11018;51.258;6.806;2022-09-09T07:25:54;19.70;43.70
4354;DHT22;11018;51.258;6.806;2022-09-09T07:28:20;19.80;43.70
4354;DHT22;11018;51.258;6.806;2022-09-09T07:30:56;20.00;42.90
4354;DHT22;11018;51.258;6.806;2022-09-09T07:33:23;20.40;39.30
4354;DHT22;11018;51.258;6.806;2022-09-09T07:35:49;20.40;38.90
4354;DHT22;11018;51.258;6.806;2022-09-09T07:38:15;20.50;37.80
4354;DHT22;11018;51.258;6.806;2022-09-09T07:40:41;20.60;36.60
4354;DHT22;11018;51.258;6.806;2022-09-09T07:43:07;20.50;37.20
4354;DHT22;11018;51.258;6.806;2022-09-09T07:45:34;20.30;36.70
4354;DHT22;11018;51.258;6.806;2022-09-09T07:48:00;20.20;38.30
4354;DHT22;11018;51.258;6.806;2022-09-09T07:50:26;20.40;38.60
4354;DHT22;11018;51.258;6.806;2022-09-09T07:52:52;20.50;37.70
4354;DHT22;11018;51.258;6.806;2022-09-09T07:55:19;20.60;35.40
4354;DHT22;11018;51.258;6.806;2022-09-09T07:57:45;20.60;36.30
4354;DHT22;11018;51.258;6.806;2022-09-09T08:00:11;20.50;34.90
4354;DHT22;11018;51.258;6.806;2022-09-09T08:02:37;20.50;34.10
4354;DHT22;11018;51.258;6.806;2022-09-09T08:05:02;20.60;31.90
4354;DHT22;11018;51.258;6.806;2022-09-09T08:07:28;20.80;31.60
4354;DHT22;11018;51.258;6.806;2022-09-09T08:09:54;20.70;32.00
4354;DHT22;11018;51.258;6.806;2022-09-09T08:12:21;20.80;30.60
4354;DHT22;11018;51.258;6.806;2022-09-09T08:14:46;20.90;29.80
4354;DHT22;11018;51.258;6.806;2022-09-09T08:17:14;21.10;29.70
4354;DHT22;11018;51.258;6.806;2022-09-09T08:19:39;21.30;27.70
4354;DHT22;11018;51.258;6.806;2022-09-09T08:22:06;21.30;27.30
4354;DHT22;11018;51.258;6.806;2022-09-09T08:24:33;21.40;26.50
4354;DHT22;11018;51.258;6.806;2022-09-09T08:26:58;21.40;26.80
4354;DHT22;11018;51.258;6.806;2022-09-09T08:29:24;21.40;27.30
4354;DHT22;11018;51.258;6.806;2022-09-09T08:31:52;21.60;26.70
4354;DHT22;11018;51.258;6.806;2022-09-09T08:34:20;21.60;26.90
4354;DHT22;11018;51.258;6.806;2022-09-09T08:36:47;21.50;26.70
4354;DHT22;11018;51.258;6.806;2022-09-09T08:39:15;21.60;26.40
4354;DHT22;11018;51.258;6.806;2022-09-09T08:47:41;21.60;26.20
4354;DHT22;11018;51.258;6.806;2022-09-09T08:50:34;21.90;24.70
4354;DHT22;11018;51.258;6.806;2022-09-09T08:53:11;22.00;23.80
4354;DHT22;11018;51.258;6.806;2022-09-09T08:55:54;22.00;23.60
4354;DHT22;11018;51.258;6.806;2022-09-09T08:58:29;22.00;23.60
4354;DHT22;11018;51.258;6.806;2022-09-09T09:01:18;22.00;23.50
4354;DHT22;11018;51.258;6.806;2022-09-09T09:06:54;22.00;23.90
4354;DHT22;11018;51.258;6.806;2022-09-09T09:09:30;22.20;23.40
4354;DHT22;11018;51.258;6.806;2022-09-09T09:12:01;22.20;22.30
4354;DHT22;11018;51.258;6.806;2022-09-09T09:14:33;22.20;22.00
4354;DHT22;11018;51.258;6.806;2022-09-09T09:17:18;21.90;22.00
4354;DHT22;11018;51.258;6.806;2022-09-09T09:19:45;21.80;22.70
4354;DHT22;11018;51.258;6.806;2022-09-09T09:25:22;21.60;22.90
4354;DHT22;11018;51.258;6.806;2022-09-09T09:28:07;21.40;23.60
4354;DHT22;11018;51.258;6.806;2022-09-09T09:30:40;21.40;24.00
4354;DHT22;11018;51.258;6.806;2022-09-09T09:33:32;21.50;24.20
4354;DHT22;11018;51.258;6.806;2022-09-09T09:36:02;21.40;24.20
4354;DHT22;11018;51.258;6.806;2022-09-09T09:38:29;21.40;24.00
4354;DHT22;11018;51.258;6.806;2022-09-09T09:40:57;21.40;23.60
4354;DHT22;11018;51.258;6.806;2022-09-09T09:43:34;21.50;23.70
4354;DHT22;11018;51.258;6.806;2022-09-09T09:46:00;21.70;22.90
4354;DHT22;11018;51.258;6.806;2022-09-09T09:48:28;22.00;21.80
4354;DHT22;11018;51.258;6.806;2022-09-09T09:50:59;22.20;20.60
4354;DHT22;11018;51.258;6.806;2022-09-09T09:53:33;22.50;19.90
4354;DHT22;11018;51.258;6.806;2022-09-09T09:56:02;22.50;18.90
4354;DHT22;11018;51.258;6.806;2022-09-09T09:58:31;22.50;19.10
4354;DHT22;11018;51.258;6.806;2022-09-09T10:01:00;22.70;19.30
4354;DHT22;11018;51.258;6.806;2022-09-09T10:03:31;22.80;18.00
4354;DHT22;11018;51.258;6.806;2022-09-09T10:05:57;22.90;18.00
4354;DHT22;11018;51.258;6.806;2022-09-09T10:08:25;22.90;17.80
4354;DHT22;11018;51.258;6.806;2022-09-09T10:19:31;23.50;16.90
4354;DHT22;11018;51.258;6.806;2022-09-09T10:22:15;23.50;16.80
4354;DHT22;11018;51.258;6.806;2022-09-09T10:27:27;23.20;16.90
4354;DHT22;11018;51.258;6.806;2022-09-09T10:33:08;23.40;17.10
4354;DHT22;11018;51.258;6.806;2022-09-09T10:38:39;23.30;17.70
4354;DHT22;11018;51.258;6.806;2022-09-09T10:41:19;23.10;17.80
4354;DHT22;11018;51.258;6.806;2022-09-09T10:46:56;22.70;19.10
4354;DHT22;11018;51.258;6.806;2022-09-09T10:52:33;23.40;18.10
4354;DHT22;11018;51.258;6.806;2022-09-09T10:55:26;23.80;17.20
4354;DHT22;11018;51.258;6.806;2022-09-09T10:57:58;24.10;15.90
4354;DHT22;11018;51.258;6.806;2022-09-09T11:00:40;24.10;15.70
4354;DHT22;11018;51.258;6.806;2022-09-09T11:03:37;24.10;15.50
4354;DHT22;11018;51.258;6.806;2022-09-09T11:06:14;24.30;16.00
4354;DHT22;11018;51.258;6.806;2022-09-09T11:08:40;24.20;15.90
4354;DHT22;11018;51.258;6.806;2022-09-09T11:12:19;24.10;15.80
4354;DHT22;11018;51.258;6.806;2022-09-09T11:14:28;24.40;15.60
4354;DHT22;11018;51.258;6.806;2022-09-09T11:17:03;24.60;15.50
4354;DHT22;11018;51.258;6.806;2022-09-09T11:19:33;24.50;14.90
4354;DHT22;11018;51.258;6.806;2022-09-09T11:24:53;23.40;19.00
4354;DHT22;11018;51.258;6.806;2022-09-09T11:27:33;23.00;22.50
4354;DHT22;11018;51.258;6.806;2022-09-09T11:32:55;23.00;27.00
4354;DHT22;11018;51.258;6.806;2022-09-09T11:40:45;23.40;21.90
4354;DHT22;11018;51.258;6.806;2022-09-09T11:43:14;23.50;20.80
4354;DHT22;11018;51.258;6.806;2022-09-09T11:45:42;23.70;20.90
4354;DHT22;11018;51.258;6.806;2022-09-09T11:48:33;24.10;21.00
4354;DHT22;11018;51.258;6.806;2022-09-09T11:51:04;24.30;20.30
4354;DHT22;11018;51.258;6.806;2022-09-09T11:53:31;24.40;18.40
4354;DHT22;11018;51.258;6.806;2022-09-09T11:56:03;24.30;18.50
4354;DHT22;11018;51.258;6.806;2022-09-09T11:58:37;24.10;18.70
4354;DHT22;11018;51.258;6.806;2022-09-09T12:01:13;23.60;20.40
4354;DHT22;11018;51.258;6.806;2022-09-09T12:03:49;23.20;22.20
4354;DHT22;11018;51.258;6.806;2022-09-09T12:06:18;22.90;21.40
4354;DHT22;11018;51.258;6.806;2022-09-09T12:08:50;23.00;22.50
4354;DHT22;11018;51.258;6.806;2022-09-09T12:11:27;22.90;21.10
4354;DHT22;11018;51.258;6.806;2022-09-09T12:13:55;22.80;21.40
4354;DHT22;11018;51.258;6.806;2022-09-09T12:16:35;22.80;23.20
4354;DHT22;11018;51.258;6.806;2022-09-09T12:19:23;23.00;21.90
4354;DHT22;11018;51.258;6.806;2022-09-09T12:25:03;23.40;19.90
4354;DHT22;11018;51.258;6.806;2022-09-09T12:27:40;24.00;18.90
4354;DHT22;11018;51.258;6.806;2022-09-09T12:30:11;24.30;18.20
4354;DHT22;11018;51.258;6.806;2022-09-09T12:32:37;24.60;17.00
4354;DHT22;11018;51.258;6.806;2022-09-09T12:35:25;24.50;16.90
4354;DHT22;11018;51.258;6.806;2022-09-09T12:37:57;24.50;17.00
4354;DHT22;11018;51.258;6.806;2022-09-09T12:40:32;24.20;16.70
4354;DHT22;11018;51.258;6.806;2022-09-09T12:43:01;23.90;17.30
4354;DHT22;11018;51.258;6.806;2022-09-09T12:45:31;23.50;17.30
4354;DHT22;11018;51.258;6.806;2022-09-09T12:50:33;23.70;17.50
4354;DHT22;11018;51.258;6.806;2022-09-09T12:53:21;23.60;17.50
4354;DHT22;11018;51.258;6.806;2022-09-09T12:55:59;23.30;18.20
4354;DHT22;11018;51.258;6.806;2022-09-09T12:58:26;23.10;20.00
4354;DHT22;11018;51.258;6.806;2022-09-09T13:00:54;23.00;19.90
4354;DHT22;11018;51.258;6.806;2022-09-09T13:03:23;23.40;19.70
4354;DHT22;11018;51.258;6.806;2022-09-09T13:05:49;23.80;18.90
4354;DHT22;11018;51.258;6.806;2022-09-09T13:08:16;23.80;18.60
4354;DHT22;11018;51.258;6.806;2022-09-09T13:10:58;23.50;19.00
4354;DHT22;11018;51.258;6.806;2022-09-09T13:13:37;23.10;20.20
4354;DHT22;11018;51.258;6.806;2022-09-09T13:16:05;22.80;22.70
4354;DHT22;11018;51.258;6.806;2022-09-09T13:18:37;22.40;26.20
4354;DHT22;11018;51.258;6.806;2022-09-09T13:21:05;22.10;27.80
4354;DHT22;11018;51.258;6.806;2022-09-09T13:23:33;22.10;28.30
4354;DHT22;11018;51.258;6.806;2022-09-09T13:26:05;22.40;26.40
4354;DHT22;11018;51.258;6.806;2022-09-09T13:28:33;22.40;26.80
4354;DHT22;11018;51.258;6.806;2022-09-09T13:31:01;22.50;26.60
4354;DHT22;11018;51.258;6.806;2022-09-09T13:33:37;22.60;26.40
4354;DHT22;11018;51.258;6.806;2022-09-09T13:36:09;22.80;25.10
4354;DHT22;11018;51.258;6.806;2022-09-09T13:38:38;23.10;24.10
4354;DHT22;11018;51.258;6.806;2022-09-09T13:41:08;23.50;22.60
4354;DHT22;11018;51.258;6.806;2022-09-09T13:43:52;23.60;22.00
4354;DHT22;11018;51.258;6.806;2022-09-09T13:46:37;23.60;20.00
4354;DHT22;11018;51.258;6.806;2022-09-09T13:54:00;24.00;19.30
4354;DHT22;11018;51.258;6.806;2022-09-09T13:56:26;23.70;20.10
4354;DHT22;11018;51.258;6.806;2022-09-09T13:58:54;23.50;20.50
4354;DHT22;11018;51.258;6.806;2022-09-09T14:01:20;23.10;21.30
4354;DHT22;11018;51.258;6.806;2022-09-09T14:03:45;22.70;22.70
4354;DHT22;11018;51.258;6.806;2022-09-09T14:06:11;22.40;25.80
4354;DHT22;11018;51.258;6.806;2022-09-09T14:08:37;22.30;27.50
4354;DHT22;11018;51.258;6.806;2022-09-09T14:11:03;22.50;29.60
4354;DHT22;11018;51.258;6.806;2022-09-09T14:13:29;23.10;26.80
4354;DHT22;11018;51.258;6.806;2022-09-09T14:15:55;23.50;25.00
4354;DHT22;11018;51.258;6.806;2022-09-09T14:18:21;23.80;26.10
4354;DHT22;11018;51.258;6.806;2022-09-09T14:20:48;24.30;22.50
4354;DHT22;11018;51.258;6.806;2022-09-09T14:23:16;25.30;19.60
4354;DHT22;11018;51.258;6.806;2022-09-09T14:25:43;25.30;17.80
4354;DHT22;11018;51.258;6.806;2022-09-09T14:28:10;25.60;16.90
4354;DHT22;11018;51.258;6.806;2022-09-09T14:30:38;25.30;17.00
4354;DHT22;11018;51.258;6.806;2022-09-09T14:33:04;24.30;18.50
4354;DHT22;11018;51.258;6.806;2022-09-09T14:35:29;23.50;20.60
4354;DHT22;11018;51.258;6.806;2022-09-09T14:37:55;22.50;22.40
4354;DHT22;11018;51.258;6.806;2022-09-09T14:40:21;21.50;22.80
4354;DHT22;11018;51.258;6.806;2022-09-09T14:42:47;20.80;26.00
4354;DHT22;11018;51.258;6.806;2022-09-09T14:45:13;20.50;27.40
4354;DHT22;11018;51.258;6.806;2022-09-09T14:47:38;20.00;28.20
4354;DHT22;11018;51.258;6.806;2022-09-09T14:50:05;19.70;29.90
4354;DHT22;11018;51.258;6.806;2022-09-09T14:52:31;19.40;31.50
4354;DHT22;11018;51.258;6.806;2022-09-09T14:54:56;19.20;33.90
4354;DHT22;11018;51.258;6.806;2022-09-09T14:57:22;19.00;36.00
4354;DHT22;11018;51.258;6.806;2022-09-09T14:59:48;18.90;38.80
4354;DHT22;11018;51.258;6.806;2022-09-09T15:02:15;18.80;42.00
4354;DHT22;11018;51.258;6.806;2022-09-09T15:04:41;18.80;51.00
4354;DHT22;11018;51.258;6.806;2022-09-09T15:07:06;18.50;48.80
4354;DHT22;11018;51.258;6.806;2022-09-09T15:09:32;18.30;53.70
4354;DHT22;11018;51.258;6.806;2022-09-09T15:11:57;18.20;55.80
4354;DHT22;11018;51.258;6.806;2022-09-09T15:14:23;18.10;54.80
4354;DHT22;11018;51.258;6.806;2022-09-09T15:16:49;18.20;57.20
4354;DHT22;11018;51.258;6.806;2022-09-09T15:19:14;18.30;59.30
4354;DHT22;11018;51.258;6.806;2022-09-09T15:21:45;18.40;60.50
4354;DHT22;11018;51.258;6.806;2022-09-09T15:24:11;18.60;60.90
4354;DHT22;11018;51.258;6.806;2022-09-09T15:26:38;18.70;63.30
4354;DHT22;11018;51.258;6.806;2022-09-09T15:29:04;18.90;61.70
4354;DHT22;11018;51.258;6.806;2022-09-09T15:31:31;19.10;60.60
4354;DHT22;11018;51.258;6.806;2022-09-09T15:33:59;19.50;59.80
4354;DHT22;11018;51.258;6.806;2022-09-09T15:36:36;20.30;54.40
4354;DHT22;11018;51.258;6.806;2022-09-09T15:39:04;20.80;49.50
4354;DHT22;11018;51.258;6.806;2022-09-09T15:41:30;21.10;48.90
4354;DHT22;11018;51.258;6.806;2022-09-09T15:43:59;21.30;48.70
4354;DHT22;11018;51.258;6.806;2022-09-09T15:46:34;21.40;47.90
4354;DHT22;11018;51.258;6.806;2022-09-09T15:51:31;21.20;46.30
4354;DHT22;11018;51.258;6.806;2022-09-09T15:53:58;21.10;46.70
4354;DHT22;11018;51.258;6.806;2022-09-09T15:56:28;21.00;47.90
4354;DHT22;11018;51.258;6.806;2022-09-09T15:58:56;20.70;50.20
4354;DHT22;11018;51.258;6.806;2022-09-09T16:01:23;20.40;52.60
4354;DHT22;11018;51.258;6.806;2022-09-09T16:03:49;20.10;58.30
4354;DHT22;11018;51.258;6.806;2022-09-09T16:06:18;19.90;61.40
4354;DHT22;11018;51.258;6.806;2022-09-09T16:08:45;19.80;66.10
4354;DHT22;11018;51.258;6.806;2022-09-09T16:11:17;19.80;67.30
4354;DHT22;11018;51.258;6.806;2022-09-09T16:13:45;19.90;65.70
4354;DHT22;11018;51.258;6.806;2022-09-09T16:16:12;20.20;63.40
4354;DHT22;11018;51.258;6.806;2022-09-09T16:18:41;20.50;61.90
4354;DHT22;11018;51.258;6.806;2022-09-09T16:21:07;20.60;61.10
4354;DHT22;11018;51.258;6.806;2022-09-09T16:23:34;20.50;60.80
4354;DHT22;11018;51.258;6.806;2022-09-09T16:26:01;20.20;63.20
4354;DHT22;11018;51.258;6.806;2022-09-09T16:28:26;20.10;65.90
4354;DHT22;11018;51.258;6.806;2022-09-09T16:30:52;19.80;69.10
4354;DHT22;11018;51.258;6.806;2022-09-09T16:33:18;19.60;69.70
4354;DHT22;11018;51.258;6.806;2022-09-09T16:35:44;19.30;71.30
4354;DHT22;11018;51.258;6.806;2022-09-09T16:38:10;19.20;75.30
4354;DHT22;11018;51.258;6.806;2022-09-09T16:40:39;18.90;78.70
4354;DHT22;11018;51.258;6.806;2022-09-09T16:43:07;18.80;81.60
4354;DHT22;11018;51.258;6.806;2022-09-09T16:45:33;18.60;83.90
4354;DHT22;11018;51.258;6.806;2022-09-09T16:47:59;18.40;87.80
4354;DHT22;11018;51.258;6.806;2022-09-09T16:50:26;18.30;87.80
4354;DHT22;11018;51.258;6.806;2022-09-09T16:52:52;18.20;91.50
4354;DHT22;11018;51.258;6.806;2022-09-09T16:55:18;18.20;92.50
4354;DHT22;11018;51.258;6.806;2022-09-09T16:57:47;18.20;92.30
4354;DHT22;11018;51.258;6.806;2022-09-09T17:00:16;18.30;91.40
4354;DHT22;11018;51.258;6.806;2022-09-09T17:02:44;18.50;90.80
4354;DHT22;11018;51.258;6.806;2022-09-09T17:05:10;18.60;86.70
4354;DHT22;11018;51.258;6.806;2022-09-09T17:07:37;18.70;85.50
4354;DHT22;11018;51.258;6.806;2022-09-09T17:10:04;18.70;85.00
4354;DHT22;11018;51.258;6.806;2022-09-09T17:12:31;18.70;84.70
4354;DHT22;11018;51.258;6.806;2022-09-09T17:14:57;18.60;85.30
4354;DHT22;11018;51.258;6.806;2022-09-09T17:17:25;18.50;85.60
4354;DHT22;11018;51.258;6.806;2022-09-09T17:19:51;18.40;87.20
4354;DHT22;11018;51.258;6.806;2022-09-09T17:22:17;18.30;88.90
4354;DHT22;11018;51.258;6.806;2022-09-09T17:24:43;18.20;90.30
4354;DHT22;11018;51.258;6.806;2022-09-09T17:27:09;18.10;92.80
4354;DHT22;11018;51.258;6.806;2022-09-09T17:29:35;18.00;93.60
4354;DHT22;11018;51.258;6.806;2022-09-09T17:32:04;17.90;96.60
4354;DHT22;11018;51.258;6.806;2022-09-09T17:34:30;17.80;97.80
4354;DHT22;11018;51.258;6.806;2022-09-09T17:36:56;17.80;99.90
4354;DHT22;11018;51.258;6.806;2022-09-09T17:39:22;17.70;99.90
4354;DHT22;11018;51.258;6.806;2022-09-09T17:41:47;17.70;99.90
4354;DHT22;11018;51.258;6.806;2022-09-09T17:44:14;17.70;99.90
4354;DHT22;11018;51.258;6.806;2022-09-09T17:46:41;17.70;99.90